sensor_id;sensor_type;location;lat;lon;timestamp;pressure;altitude;pressure_sealevel;temperature;humidity
21803;BME280;18591;47.080;22.214;2023-01-30T00:00:36;100122.22;;;4.06;53.96
21803;BME280;18591;47.080;22.214;2023-01-30T00:02:38;100129.28;;;4.15;53.78
21803;BME280;18591;47.080;22.214;2023-01-30T00:04:40;100132.81;;;4.15;53.61
21803;BME280;18591;47.080;22.214;2023-01-30T00:06:42;100123.06;;;4.21;53.21
21803;BME280;18591;47.080;22.214;2023-01-30T00:08:45;100123.97;;;4.15;53.31
21803;BME280;18591;47.080;22.214;2023-01-30T00:10:47;100135.47;;;4.19;53.10
21803;BME280;18591;47.080;22.214;2023-01-30T00:12:49;100137.25;;;4.18;52.86
21803;BME280;18591;47.080;22.214;2023-01-30T00:14:51;100135.50;;;4.15;52.72
21803;BME280;18591;47.080;22.214;2023-01-30T00:16:56;100145.25;;;4.24;52.69
21803;BME280;18591;47.080;22.214;2023-01-30T00:18:58;100140.84;;;4.14;52.74
21803;BME280;18591;47.080;22.214;2023-01-30T00:21:02;100138.16;;;4.22;52.31
21803;BME280;18591;47.080;22.214;2023-01-30T00:23:04;100140.78;;;4.25;52.50
21803;BME280;18591;47.080;22.214;2023-01-30T00:25:06;100131.06;;;4.14;52.39
21803;BME280;18591;47.080;22.214;2023-01-30T00:27:09;100136.38;;;4.22;52.92
21803;BME280;18591;47.080;22.214;2023-01-30T00:29:11;100125.72;;;4.25;52.42
21803;BME280;18591;47.080;22.214;2023-01-30T00:31:13;100126.63;;;4.20;52.42
21803;BME280;18591;47.080;22.214;2023-01-30T00:33:16;100118.63;;;4.26;52.50
21803;BME280;18591;47.080;22.214;2023-01-30T00:35:18;100118.66;;;4.20;52.78
21803;BME280;18591;47.080;22.214;2023-01-30T00:37:22;100121.28;;;4.27;52.96
21803;BME280;18591;47.080;22.214;2023-01-30T00:39:27;100116.00;;;4.12;53.72
21803;BME280;18591;47.080;22.214;2023-01-30T00:41:29;100116.84;;;4.25;53.13
21803;BME280;18591;47.080;22.214;2023-01-30T00:43:51;100105.34;;;4.18;52.66
21803;BME280;18591;47.080;22.214;2023-01-30T00:46:30;100106.22;;;4.23;52.06
21803;BME280;18591;47.080;22.214;2023-01-30T00:48:53;100102.72;;;4.10;52.81
21803;BME280;18591;47.080;22.214;2023-01-30T00:50:55;100098.28;;;4.09;52.74
21803;BME280;18591;47.080;22.214;2023-01-30T00:52:57;100100.94;;;4.09;52.88
21803;BME280;18591;47.080;22.214;2023-01-30T00:54:59;100099.19;;;4.11;52.54
21803;BME280;18591;47.080;22.214;2023-01-30T00:57:01;100098.25;;;4.20;52.51
21803;BME280;18591;47.080;22.214;2023-01-30T00:59:04;100090.25;;;4.25;52.44
21803;BME280;18591;47.080;22.214;2023-01-30T01:01:06;100099.16;;;4.10;52.89
21803;BME280;18591;47.080;22.214;2023-01-30T01:06:57;100096.50;;;4.19;52.77
21803;BME280;18591;47.080;22.214;2023-01-30T01:08:59;100094.72;;;4.13;52.74
21803;BME280;18591;47.080;22.214;2023-01-30T01:11:01;100090.25;;;4.19;52.83
21803;BME280;18591;47.080;22.214;2023-01-30T01:13:03;100089.41;;;4.17;52.38
21803;BME280;18591;47.080;22.214;2023-01-30T01:15:10;100091.16;;;4.21;52.04
21803;BME280;18591;47.080;22.214;2023-01-30T01:17:13;100089.41;;;4.17;52.47
21803;BME280;18591;47.080;22.214;2023-01-30T01:19:15;100084.06;;;4.13;52.52
21803;BME280;18591;47.080;22.214;2023-01-30T01:21:17;100083.22;;;4.07;52.00
21803;BME280;18591;47.080;22.214;2023-01-30T01:23:21;100085.00;;;4.05;52.45
21803;BME280;18591;47.080;22.214;2023-01-30T01:25:24;100075.28;;;3.99;52.15
21803;BME280;18591;47.080;22.214;2023-01-30T01:27:28;100069.94;;;4.07;52.16
21803;BME280;18591;47.080;22.214;2023-01-30T01:29:30;100064.63;;;4.01;52.22
21803;BME280;18591;47.080;22.214;2023-01-30T01:31:32;100067.25;;;4.14;52.45
21803;BME280;18591;47.080;22.214;2023-01-30T01:33:34;100065.47;;;4.10;51.91
21803;BME280;18591;47.080;22.214;2023-01-30T01:35:39;100065.53;;;3.97;52.33
21803;BME280;18591;47.080;22.214;2023-01-30T01:37:41;100059.31;;;4.02;52.61
21803;BME280;18591;47.080;22.214;2023-01-30T01:39:46;100057.53;;;4.03;52.30
21803;BME280;18591;47.080;22.214;2023-01-30T01:42:09;100057.56;;;3.93;52.50
21803;BME280;18591;47.080;22.214;2023-01-30T01:44:13;100056.66;;;3.98;52.61
21803;BME280;18591;47.080;22.214;2023-01-30T01:46:21;100051.38;;;3.96;52.76
21803;BME280;18591;47.080;22.214;2023-01-30T01:48:37;100046.03;;;3.95;52.51
21803;BME280;18591;47.080;22.214;2023-01-30T01:50:47;100036.31;;;3.90;52.80
21803;BME280;18591;47.080;22.214;2023-01-30T01:52:53;100031.84;;;3.97;52.85
21803;BME280;18591;47.080;22.214;2023-01-30T01:55:01;100031.84;;;3.97;52.88
21803;BME280;18591;47.080;22.214;2023-01-30T01:57:06;100024.78;;;3.95;53.01
21803;BME280;18591;47.080;22.214;2023-01-30T01:59:39;100025.69;;;3.89;52.85
21803;BME280;18591;47.080;22.214;2023-01-30T02:01:45;100030.06;;;4.02;52.67
21803;BME280;18591;47.080;22.214;2023-01-30T02:03:53;100030.94;;;3.98;53.17
21803;BME280;18591;47.080;22.214;2023-01-30T02:05:59;100026.56;;;3.89;53.61
21803;BME280;18591;47.080;22.214;2023-01-30T02:08:13;100020.34;;;3.97;53.50
21803;BME280;18591;47.080;22.214;2023-01-30T02:10:23;100022.97;;;3.98;53.41
21803;BME280;18591;47.080;22.214;2023-01-30T02:12:26;100019.44;;;3.95;53.33
21803;BME280;18591;47.080;22.214;2023-01-30T02:14:30;100025.69;;;3.93;53.62
21803;BME280;18591;47.080;22.214;2023-01-30T02:16:35;100024.78;;;3.90;53.95
21803;BME280;18591;47.080;22.214;2023-01-30T02:18:40;100023.88;;;3.96;54.02
21803;BME280;18591;47.080;22.214;2023-01-30T02:27:43;100015.94;;;3.91;54.69
21803;BME280;18591;47.080;22.214;2023-01-30T02:30:31;100009.75;;;3.86;55.35
21803;BME280;18591;47.080;22.214;2023-01-30T02:32:37;100005.28;;;3.94;54.60
21803;BME280;18591;47.080;22.214;2023-01-30T02:35:20;100011.50;;;3.90;55.07
21803;BME280;18591;47.080;22.214;2023-01-30T02:38:00;100007.06;;;3.89;55.36
21803;BME280;18591;47.080;22.214;2023-01-30T02:42:30;100005.28;;;3.89;55.55
21803;BME280;18591;47.080;22.214;2023-01-30T02:47:10;99998.22;;;3.87;55.98
21803;BME280;18591;47.080;22.214;2023-01-30T02:51:36;100001.78;;;3.83;56.68
21803;BME280;18591;47.080;22.214;2023-01-30T02:53:38;100004.41;;;3.92;56.11
21803;BME280;18591;47.080;22.214;2023-01-30T02:55:41;99990.22;;;3.96;56.22
21803;BME280;18591;47.080;22.214;2023-01-30T02:57:45;100001.72;;;3.95;56.35
21803;BME280;18591;47.080;22.214;2023-01-30T02:59:54;99995.59;;;3.85;56.86
21803;BME280;18591;47.080;22.214;2023-01-30T03:05:17;99991.13;;;3.84;57.24
21803;BME280;18591;47.080;22.214;2023-01-30T03:07:40;99986.75;;;3.80;57.59
21803;BME280;18591;47.080;22.214;2023-01-30T03:12:25;99984.03;;;3.89;57.65
21803;BME280;18591;47.080;22.214;2023-01-30T03:14:51;99972.50;;;3.87;57.48
21803;BME280;18591;47.080;22.214;2023-01-30T03:16:57;99976.06;;;3.86;57.47
21803;BME280;18591;47.080;22.214;2023-01-30T03:19:09;99968.97;;;3.91;57.28
21803;BME280;18591;47.080;22.214;2023-01-30T03:21:13;99976.03;;;3.92;57.21
21803;BME280;18591;47.080;22.214;2023-01-30T03:23:15;99974.28;;;3.93;57.22
21803;BME280;18591;47.080;22.214;2023-01-30T03:25:23;99969.88;;;3.84;57.76
21803;BME280;18591;47.080;22.214;2023-01-30T03:27:28;99968.97;;;3.91;57.78
21803;BME280;18591;47.080;22.214;2023-01-30T03:29:31;99965.44;;;3.86;57.46
21803;BME280;18591;47.080;22.214;2023-01-30T03:31:33;99970.69;;;3.96;57.64
21803;BME280;18591;47.080;22.214;2023-01-30T03:33:35;99967.16;;;4.01;57.56
21803;BME280;18591;47.080;22.214;2023-01-30T03:35:38;99962.69;;;4.03;57.25
21803;BME280;18591;47.080;22.214;2023-01-30T03:37:44;99964.47;;;4.04;57.11
21803;BME280;18591;47.080;22.214;2023-01-30T03:39:47;99975.09;;;4.07;56.44
21803;BME280;18591;47.080;22.214;2023-01-30T03:41:51;99966.25;;;3.98;56.68
21803;BME280;18591;47.080;22.214;2023-01-30T03:43:55;99976.03;;;3.92;56.83
21803;BME280;18591;47.080;22.214;2023-01-30T03:45:57;99973.38;;;3.92;56.61
21803;BME280;18591;47.080;22.214;2023-01-30T03:47:59;99970.72;;;3.94;56.46
21803;BME280;18591;47.080;22.214;2023-01-30T03:50:02;99958.31;;;3.95;56.64
21803;BME280;18591;47.080;22.214;2023-01-30T03:52:07;99959.28;;;3.83;56.75
21803;BME280;18591;47.080;22.214;2023-01-30T03:54:09;99949.50;;;3.85;56.49
21803;BME280;18591;47.080;22.214;2023-01-30T03:56:12;99952.19;;;3.80;56.77
21803;BME280;18591;47.080;22.214;2023-01-30T03:58:14;99949.56;;;3.73;56.94
21803;BME280;18591;47.080;22.214;2023-01-30T04:00:16;99946.88;;;3.80;56.16
21803;BME280;18591;47.080;22.214;2023-01-30T04:02:22;99944.19;;;3.83;55.99
21803;BME280;18591;47.080;22.214;2023-01-30T04:04:24;99949.53;;;3.79;56.08
21803;BME280;18591;47.080;22.214;2023-01-30T04:06:26;99941.53;;;3.83;56.19
21803;BME280;18591;47.080;22.214;2023-01-30T04:08:30;99938.88;;;3.83;56.23
21803;BME280;18591;47.080;22.214;2023-01-30T04:10:32;99932.69;;;3.80;56.08
21803;BME280;18591;47.080;22.214;2023-01-30T04:12:35;99930.94;;;3.74;56.19
21803;BME280;18591;47.080;22.214;2023-01-30T04:14:37;99920.34;;;3.68;56.38
21803;BME280;18591;47.080;22.214;2023-01-30T04:16:58;99917.69;;;3.62;56.71
21803;BME280;18591;47.080;22.214;2023-01-30T04:19:20;99916.81;;;3.61;56.84
21803;BME280;18591;47.080;22.214;2023-01-30T04:21:23;99913.25;;;3.67;56.49
21803;BME280;18591;47.080;22.214;2023-01-30T04:23:25;99899.97;;;3.64;56.72
21803;BME280;18591;47.080;22.214;2023-01-30T04:25:27;99897.31;;;3.64;56.27
21803;BME280;18591;47.080;22.214;2023-01-30T04:27:30;99894.69;;;3.59;56.35
21803;BME280;18591;47.080;22.214;2023-01-30T04:29:48;99892.03;;;3.58;55.96
21803;BME280;18591;47.080;22.214;2023-01-30T04:31:50;99899.13;;;3.59;55.84
21803;BME280;18591;47.080;22.214;2023-01-30T04:33:56;99890.22;;;3.64;55.56
21803;BME280;18591;47.080;22.214;2023-01-30T04:35:58;99892.03;;;3.62;55.53
21803;BME280;18591;47.080;22.214;2023-01-30T04:38:01;99888.50;;;3.57;55.52
21803;BME280;18591;47.080;22.214;2023-01-30T04:40:07;99888.53;;;3.53;55.86
21803;BME280;18591;47.080;22.214;2023-01-30T04:42:10;99886.75;;;3.50;55.61
21803;BME280;18591;47.080;22.214;2023-01-30T04:44:22;99882.34;;;3.46;55.84
21803;BME280;18591;47.080;22.214;2023-01-30T04:46:47;99881.47;;;3.42;56.16
21803;BME280;18591;47.080;22.214;2023-01-30T04:48:50;99884.13;;;3.44;55.93
21803;BME280;18591;47.080;22.214;2023-01-30T04:50:54;99880.56;;;3.43;55.91
21803;BME280;18591;47.080;22.214;2023-01-30T04:52:57;99886.78;;;3.47;56.09
21803;BME280;18591;47.080;22.214;2023-01-30T04:54:59;99882.34;;;3.47;55.93
21803;BME280;18591;47.080;22.214;2023-01-30T04:57:02;99878.78;;;3.52;55.88
21803;BME280;18591;47.080;22.214;2023-01-30T04:59:04;99880.53;;;3.56;55.90
21803;BME280;18591;47.080;22.214;2023-01-30T05:03:24;99879.66;;;3.51;56.25
21803;BME280;18591;47.080;22.214;2023-01-30T05:05:27;99869.91;;;3.56;56.26
21803;BME280;18591;47.080;22.214;2023-01-30T05:07:29;99872.56;;;3.56;56.01
21803;BME280;18591;47.080;22.214;2023-01-30T05:09:31;99869.06;;;3.47;56.38
21803;BME280;18591;47.080;22.214;2023-01-30T05:11:34;99877.91;;;3.46;56.49
21803;BME280;18591;47.080;22.214;2023-01-30T05:13:36;99867.25;;;3.54;55.85
21803;BME280;18591;47.080;22.214;2023-01-30T05:15:38;99869.91;;;3.57;55.86
21803;BME280;18591;47.080;22.214;2023-01-30T05:17:40;99869.03;;;3.54;56.02
21803;BME280;18591;47.080;22.214;2023-01-30T05:19:45;99866.41;;;3.52;56.17
21803;BME280;18591;47.080;22.214;2023-01-30T05:21:47;99863.72;;;3.49;55.92
21803;BME280;18591;47.080;22.214;2023-01-30T05:23:50;99868.19;;;3.47;56.05
21803;BME280;18591;47.080;22.214;2023-01-30T05:25:52;99869.94;;;3.43;55.93
21803;BME280;18591;47.080;22.214;2023-01-30T05:27:54;99873.47;;;3.50;55.94
21803;BME280;18591;47.080;22.214;2023-01-30T05:29:57;99874.34;;;3.49;55.47
21803;BME280;18591;47.080;22.214;2023-01-30T05:31:59;99870.84;;;3.47;55.68
21803;BME280;18591;47.080;22.214;2023-01-30T05:34:02;99873.50;;;3.44;55.45
21803;BME280;18591;47.080;22.214;2023-01-30T05:36:05;99872.59;;;3.48;55.58
21803;BME280;18591;47.080;22.214;2023-01-30T05:38:07;99892.06;;;3.44;55.47
21803;BME280;18591;47.080;22.214;2023-01-30T05:40:10;99883.22;;;3.51;55.14
21803;BME280;18591;47.080;22.214;2023-01-30T05:42:16;99877.94;;;3.42;55.13
21803;BME280;18591;47.080;22.214;2023-01-30T05:44:18;99883.25;;;3.42;55.08
21803;BME280;18591;47.080;22.214;2023-01-30T05:46:20;99881.47;;;3.45;54.71
21803;BME280;18591;47.080;22.214;2023-01-30T05:48:23;99893.91;;;3.37;54.37
21803;BME280;18591;47.080;22.214;2023-01-30T05:50:25;99893.00;;;3.35;54.75
21803;BME280;18591;47.080;22.214;2023-01-30T05:52:27;99895.66;;;3.40;54.33
21803;BME280;18591;47.080;22.214;2023-01-30T05:54:29;99891.25;;;3.37;53.98
21803;BME280;18591;47.080;22.214;2023-01-30T05:56:31;99890.38;;;3.37;54.16
21803;BME280;18591;47.080;22.214;2023-01-30T05:58:34;99885.03;;;3.38;54.04
21803;BME280;18591;47.080;22.214;2023-01-30T06:00:36;99888.56;;;3.42;54.34
21803;BME280;18591;47.080;22.214;2023-01-30T06:02:38;99887.72;;;3.32;53.99
21803;BME280;18591;47.080;22.214;2023-01-30T06:04:43;99888.59;;;3.37;54.29
21803;BME280;18591;47.080;22.214;2023-01-30T06:06:48;99899.19;;;3.31;54.19
21803;BME280;18591;47.080;22.214;2023-01-30T06:08:55;99893.91;;;3.33;53.84
21803;BME280;18591;47.080;22.214;2023-01-30T06:11:04;99893.91;;;3.30;54.25
21803;BME280;18591;47.080;22.214;2023-01-30T06:13:07;99897.44;;;3.33;53.88
21803;BME280;18591;47.080;22.214;2023-01-30T06:15:11;99893.91;;;3.28;54.12
21803;BME280;18591;47.080;22.214;2023-01-30T06:17:13;99886.84;;;3.22;54.08
21803;BME280;18591;47.080;22.214;2023-01-30T06:19:16;99881.53;;;3.27;53.70
21803;BME280;18591;47.080;22.214;2023-01-30T06:21:18;99893.94;;;3.25;54.38
21803;BME280;18591;47.080;22.214;2023-01-30T06:23:23;99902.78;;;3.24;53.97
21803;BME280;18591;47.080;22.214;2023-01-30T06:25:25;99896.56;;;3.25;53.70
21803;BME280;18591;47.080;22.214;2023-01-30T06:27:52;99894.84;;;3.19;54.17
21803;BME280;18591;47.080;22.214;2023-01-30T06:29:55;99904.53;;;3.25;54.20
21803;BME280;18591;47.080;22.214;2023-01-30T06:31:57;99902.75;;;3.28;54.04
21803;BME280;18591;47.080;22.214;2023-01-30T06:33:59;99906.34;;;3.17;54.27
21803;BME280;18591;47.080;22.214;2023-01-30T06:36:01;99897.47;;;3.24;54.01
21803;BME280;18591;47.080;22.214;2023-01-30T06:38:04;99902.78;;;3.13;54.44
21803;BME280;18591;47.080;22.214;2023-01-30T06:40:07;99901.03;;;3.14;54.14
21803;BME280;18591;47.080;22.214;2023-01-30T06:42:09;99910.75;;;3.18;54.57
21803;BME280;18591;47.080;22.214;2023-01-30T06:44:11;99904.56;;;3.20;54.55
21803;BME280;18591;47.080;22.214;2023-01-30T06:46:13;99901.91;;;3.20;54.31
21803;BME280;18591;47.080;22.214;2023-01-30T06:48:15;99903.66;;;3.23;54.19
21803;BME280;18591;47.080;22.214;2023-01-30T06:50:19;99904.56;;;3.26;54.26
21803;BME280;18591;47.080;22.214;2023-01-30T06:52:21;99900.09;;;3.28;54.19
21803;BME280;18591;47.080;22.214;2023-01-30T06:54:26;99902.78;;;3.18;54.03
21803;BME280;18591;47.080;22.214;2023-01-30T06:56:28;99899.25;;;3.20;54.34
21803;BME280;18591;47.080;22.214;2023-01-30T06:58:30;99895.69;;;3.24;54.09
21803;BME280;18591;47.080;22.214;2023-01-30T07:00:33;99887.78;;;3.14;54.57
21803;BME280;18591;47.080;22.214;2023-01-30T07:02:35;99886.88;;;3.16;54.66
21803;BME280;18591;47.080;22.214;2023-01-30T07:04:37;99892.19;;;3.15;54.90
21803;BME280;18591;47.080;22.214;2023-01-30T07:06:39;99890.38;;;3.18;54.38
21803;BME280;18591;47.080;22.214;2023-01-30T07:08:42;99893.91;;;3.23;54.49
21803;BME280;18591;47.080;22.214;2023-01-30T07:10:45;99899.25;;;3.20;54.04
21803;BME280;18591;47.080;22.214;2023-01-30T07:12:47;99901.00;;;3.23;54.05
21803;BME280;18591;47.080;22.214;2023-01-30T07:14:50;99895.72;;;3.20;54.49
21803;BME280;18591;47.080;22.214;2023-01-30T07:16:53;99895.69;;;3.23;54.44
21803;BME280;18591;47.080;22.214;2023-01-30T07:22:55;99884.97;;;3.49;53.94
21803;BME280;18591;47.080;22.214;2023-01-30T07:24:58;99879.66;;;3.55;53.91
21803;BME280;18591;47.080;22.214;2023-01-30T07:27:00;99882.28;;;3.58;53.99
21803;BME280;18591;47.080;22.214;2023-01-30T07:29:02;99877.00;;;3.54;53.79
21803;BME280;18591;47.080;22.214;2023-01-30T07:31:04;99898.22;;;3.61;53.67
21803;BME280;18591;47.080;22.214;2023-01-30T07:33:06;99896.44;;;3.68;53.47
21803;BME280;18591;47.080;22.214;2023-01-30T07:35:08;99885.81;;;3.65;53.52
21803;BME280;18591;47.080;22.214;2023-01-30T07:37:11;99890.31;;;3.52;53.48
21803;BME280;18591;47.080;22.214;2023-01-30T07:39:13;99885.88;;;3.46;53.96
21803;BME280;18591;47.080;22.214;2023-01-30T07:41:15;99886.75;;;3.53;53.70
21803;BME280;18591;47.080;22.214;2023-01-30T07:43:17;99879.66;;;3.51;53.96
21803;BME280;18591;47.080;22.214;2023-01-30T07:45:19;99879.66;;;3.55;53.89
21803;BME280;18591;47.080;22.214;2023-01-30T07:47:21;99872.56;;;3.60;53.75
21803;BME280;18591;47.080;22.214;2023-01-30T07:49:23;99872.56;;;3.57;53.67
21803;BME280;18591;47.080;22.214;2023-01-30T07:51:25;99871.63;;;3.64;53.90
21803;BME280;18591;47.080;22.214;2023-01-30T07:53:27;99863.72;;;3.60;53.96
21803;BME280;18591;47.080;22.214;2023-01-30T07:55:29;99862.81;;;3.62;53.72
21803;BME280;18591;47.080;22.214;2023-01-30T07:57:31;99863.72;;;3.51;54.03
21803;BME280;18591;47.080;22.214;2023-01-30T07:59:33;99868.16;;;3.48;53.89
21803;BME280;18591;47.080;22.214;2023-01-30T08:01:35;99861.09;;;3.41;53.95
21803;BME280;18591;47.080;22.214;2023-01-30T08:03:37;99859.41;;;3.26;54.42
21803;BME280;18591;47.080;22.214;2023-01-30T08:05:39;99862.03;;;3.34;54.28
21803;BME280;18591;47.080;22.214;2023-01-30T08:07:41;99867.34;;;3.37;54.50
21803;BME280;18591;47.080;22.214;2023-01-30T08:09:43;99877.03;;;3.41;54.12
21803;BME280;18591;47.080;22.214;2023-01-30T08:11:46;99874.38;;;3.43;54.38
21803;BME280;18591;47.080;22.214;2023-01-30T08:13:48;99880.56;;;3.49;54.19
21803;BME280;18591;47.080;22.214;2023-01-30T08:15:50;99879.66;;;3.51;54.10
21803;BME280;18591;47.080;22.214;2023-01-30T08:17:54;99879.66;;;3.49;54.08
21803;BME280;18591;47.080;22.214;2023-01-30T08:19:57;99866.41;;;3.46;54.28
21803;BME280;18591;47.080;22.214;2023-01-30T08:21:59;99866.41;;;3.46;54.65
21803;BME280;18591;47.080;22.214;2023-01-30T08:24:01;99862.91;;;3.39;54.72
21803;BME280;18591;47.080;22.214;2023-01-30T08:26:04;99863.81;;;3.31;55.21
21803;BME280;18591;47.080;22.214;2023-01-30T08:28:07;99861.13;;;3.34;54.90
21803;BME280;18591;47.080;22.214;2023-01-30T08:30:10;99862.91;;;3.35;54.86
21803;BME280;18591;47.080;22.214;2023-01-30T08:32:12;99854.94;;;3.35;54.75
21803;BME280;18591;47.080;22.214;2023-01-30T08:34:16;99846.97;;;3.33;54.51
21803;BME280;18591;47.080;22.214;2023-01-30T08:36:18;99847.00;;;3.25;54.63
21803;BME280;18591;47.080;22.214;2023-01-30T08:38:20;99843.47;;;3.23;54.68
21803;BME280;18591;47.080;22.214;2023-01-30T08:40:22;99840.84;;;3.22;54.70
21803;BME280;18591;47.080;22.214;2023-01-30T08:42:25;99837.31;;;3.21;54.39
21803;BME280;18591;47.080;22.214;2023-01-30T08:44:27;99824.91;;;3.19;54.73
21803;BME280;18591;47.080;22.214;2023-01-30T08:46:29;99833.75;;;3.19;54.93
21803;BME280;18591;47.080;22.214;2023-01-30T08:48:31;99826.69;;;3.20;54.85
21803;BME280;18591;47.080;22.214;2023-01-30T08:50:53;99830.19;;;3.23;54.62
21803;BME280;18591;47.080;22.214;2023-01-30T08:52:55;99831.91;;;3.34;54.98
21803;BME280;18591;47.080;22.214;2023-01-30T08:54:58;99827.50;;;3.37;54.57
21803;BME280;18591;47.080;22.214;2023-01-30T08:57:00;99827.47;;;3.39;54.60
21803;BME280;18591;47.080;22.214;2023-01-30T08:59:05;99825.75;;;3.32;54.31
21803;BME280;18591;47.080;22.214;2023-01-30T09:01:07;99823.94;;;3.38;54.35
21803;BME280;18591;47.080;22.214;2023-01-30T09:03:09;99812.44;;;3.42;53.89
21803;BME280;18591;47.080;22.214;2023-01-30T09:05:13;99830.16;;;3.37;54.63
21803;BME280;18591;47.080;22.214;2023-01-30T09:07:17;99811.50;;;3.48;54.27
21803;BME280;18591;47.080;22.214;2023-01-30T09:09:20;99812.44;;;3.38;53.98
21803;BME280;18591;47.080;22.214;2023-01-30T09:11:22;99809.78;;;3.42;54.29
21803;BME280;18591;47.080;22.214;2023-01-30T09:13:25;99812.44;;;3.42;54.20
21803;BME280;18591;47.080;22.214;2023-01-30T09:15:27;99807.09;;;3.47;53.28
21803;BME280;18591;47.080;22.214;2023-01-30T09:17:29;99809.69;;;3.52;53.42
21803;BME280;18591;47.080;22.214;2023-01-30T09:19:31;99816.81;;;3.49;53.73
21803;BME280;18591;47.080;22.214;2023-01-30T09:21:33;99813.22;;;3.58;53.97
21803;BME280;18591;47.080;22.214;2023-01-30T09:23:35;99814.09;;;3.59;53.64
21803;BME280;18591;47.080;22.214;2023-01-30T09:25:38;99819.38;;;3.62;53.63
21803;BME280;18591;47.080;22.214;2023-01-30T09:27:40;99826.47;;;3.67;53.44
21803;BME280;18591;47.080;22.214;2023-01-30T09:29:45;99817.56;;;3.73;53.33
21803;BME280;18591;47.080;22.214;2023-01-30T09:31:47;99816.66;;;3.77;52.97
21803;BME280;18591;47.080;22.214;2023-01-30T09:33:49;99814.00;;;3.76;53.23
21803;BME280;18591;47.080;22.214;2023-01-30T09:35:51;99800.69;;;3.80;53.45
21803;BME280;18591;47.080;22.214;2023-01-30T09:37:53;99799.84;;;3.74;53.75
21803;BME280;18591;47.080;22.214;2023-01-30T09:39:55;99784.75;;;3.77;53.32
21803;BME280;18591;47.080;22.214;2023-01-30T09:47:05;99748.50;;;3.70;52.66
21803;BME280;18591;47.080;22.214;2023-01-30T09:49:17;99756.44;;;3.73;52.75
21803;BME280;18591;47.080;22.214;2023-01-30T09:51:48;99734.31;;;3.73;52.08
21803;BME280;18591;47.080;22.214;2023-01-30T09:54:28;99730.72;;;3.77;52.42
21803;BME280;18591;47.080;22.214;2023-01-30T09:56:25;99730.81;;;3.67;52.55
21803;BME280;18591;47.080;22.214;2023-01-30T10:00:40;99716.50;;;3.84;52.63
21803;BME280;18591;47.080;22.214;2023-01-30T10:02:56;99719.09;;;3.93;52.17
21803;BME280;18591;47.080;22.214;2023-01-30T10:05:00;99695.19;;;3.93;52.32
21803;BME280;18591;47.080;22.214;2023-01-30T10:07:14;99707.56;;;3.92;51.92
21803;BME280;18591;47.080;22.214;2023-01-30T10:20:45;99676.25;;;4.27;51.20
21803;BME280;18591;47.080;22.214;2023-01-30T10:27:16;99667.34;;;4.28;51.07
21803;BME280;18591;47.080;22.214;2023-01-30T10:29:35;99670.97;;;4.22;51.79
21803;BME280;18591;47.080;22.214;2023-01-30T10:32:42;99675.38;;;4.25;51.41
21803;BME280;18591;47.080;22.214;2023-01-30T10:34:24;99669.16;;;4.24;51.59
21803;BME280;18591;47.080;22.214;2023-01-30T10:36:38;99654.88;;;4.31;51.63
21803;BME280;18591;47.080;22.214;2023-01-30T10:38:48;99662.81;;;4.36;51.91
21803;BME280;18591;47.080;22.214;2023-01-30T10:41:11;99656.59;;;4.40;51.49
21803;BME280;18591;47.080;22.214;2023-01-30T10:43:39;99635.31;;;4.39;51.38
21803;BME280;18591;47.080;22.214;2023-01-30T10:47:54;99626.50;;;4.33;50.79
21803;BME280;18591;47.080;22.214;2023-01-30T10:50:13;99624.66;;;4.39;50.86
21803;BME280;18591;47.080;22.214;2023-01-30T10:54:54;99630.75;;;4.48;50.40
21803;BME280;18591;47.080;22.214;2023-01-30T11:02:11;99625.59;;;4.36;51.23
21803;BME280;18591;47.080;22.214;2023-01-30T11:04:42;99602.41;;;4.46;51.47
21803;BME280;18591;47.080;22.214;2023-01-30T11:06:45;99609.44;;;4.51;51.35
21803;BME280;18591;47.080;22.214;2023-01-30T11:08:48;99600.59;;;4.49;50.78
21803;BME280;18591;47.080;22.214;2023-01-30T11:10:52;99605.81;;;4.57;50.98
21803;BME280;18591;47.080;22.214;2023-01-30T11:12:57;99602.22;;;4.61;51.19
21803;BME280;18591;47.080;22.214;2023-01-30T11:15:01;99590.66;;;4.62;50.72
21803;BME280;18591;47.080;22.214;2023-01-30T11:17:05;99585.34;;;4.64;50.74
21803;BME280;18591;47.080;22.214;2023-01-30T11:19:07;99593.22;;;4.73;50.79
21803;BME280;18591;47.080;22.214;2023-01-30T11:21:27;99574.78;;;4.57;50.18
21803;BME280;18591;47.080;22.214;2023-01-30T11:23:44;99574.81;;;4.54;50.19
21803;BME280;18591;47.080;22.214;2023-01-30T11:25:49;99574.75;;;4.61;50.31
21803;BME280;18591;47.080;22.214;2023-01-30T11:28:06;99570.34;;;4.58;50.56
21803;BME280;18591;47.080;22.214;2023-01-30T11:32:23;99555.16;;;4.65;50.31
21803;BME280;18591;47.080;22.214;2023-01-30T11:34:26;99564.06;;;4.64;50.38
21803;BME280;18591;47.080;22.214;2023-01-30T11:36:33;99546.28;;;4.66;50.23
21803;BME280;18591;47.080;22.214;2023-01-30T11:38:36;99564.78;;;4.75;50.58
21803;BME280;18591;47.080;22.214;2023-01-30T11:40:41;99549.81;;;4.68;49.55
21803;BME280;18591;47.080;22.214;2023-01-30T11:42:48;99543.63;;;4.64;49.61
21803;BME280;18591;47.080;22.214;2023-01-30T11:44:56;99536.72;;;4.52;49.55
21803;BME280;18591;47.080;22.214;2023-01-30T11:47:24;99540.19;;;4.57;50.29
21803;BME280;18591;47.080;22.214;2023-01-30T11:49:32;99545.47;;;4.61;50.34
21803;BME280;18591;47.080;22.214;2023-01-30T11:51:52;99528.66;;;4.58;50.24
21803;BME280;18591;47.080;22.214;2023-01-30T11:54:02;99535.75;;;4.58;50.82
21803;BME280;18591;47.080;22.214;2023-01-30T11:56:14;99536.72;;;4.52;50.30
21803;BME280;18591;47.080;22.214;2023-01-30T11:58:17;99525.97;;;4.60;50.34
21803;BME280;18591;47.080;22.214;2023-01-30T12:00:38;99518.16;;;4.48;50.13
21803;BME280;18591;47.080;22.214;2023-01-30T12:02:42;99503.06;;;4.50;50.50
21803;BME280;18591;47.080;22.214;2023-01-30T12:04:48;99512.06;;;4.40;50.79
21803;BME280;18591;47.080;22.214;2023-01-30T12:09:33;99505.06;;;4.32;50.92
21803;BME280;18591;47.080;22.214;2023-01-30T12:13:42;99482.06;;;4.30;51.00